Time;durP1;ratioP1;P1;durP2;ratioP2;P2;SDS_P1;SDS_P2;PMS_P1;PMS_P2;Temp;Humidity;BMP_temperature;BMP_pressure;BME280_temperature;BME280_humidity;BME280_pressure;Samples;Min_cycle;Max_cycle;Signal;HPM_P1;HPM_P2
2023/11/06 00:01:14;;;;;;;0.57;0.57;;;;;;;;;;5056258;28;20500;-81
2023/11/06 00:03:40;;;;;;;0.50;0.50;;;;;;;;;;5056625;28;20035;-82
2023/11/06 00:06:06;;;;;;;0.70;0.70;;;;;;;;;;5052689;28;20086;-82
2023/11/06 00:08:32;;;;;;;0.55;0.55;;;;;;;;;;5052666;28;20078;-82
2023/11/06 00:10:58;;;;;;;0.50;0.50;;;;;;;;;;5056304;28;20037;-82
2023/11/06 00:13:24;;;;;;;0.55;0.55;;;;;;;;;;5067603;28;20466;-81
2023/11/06 00:15:50;;;;;;;0.50;0.50;;;;;;;;;;5066858;28;20021;-81
2023/11/06 00:18:16;;;;;;;0.47;0.47;;;;;;;;;;5080221;28;20063;-82
2023/11/06 00:20:44;;;;;;;0.50;0.50;;;;;;;;;;5056775;28;20029;-81
2023/11/06 00:23:10;;;;;;;0.70;0.70;;;;;;;;;;5056440;28;20055;-82
2023/11/06 00:25:37;;;;;;;0.50;0.50;;;;;;;;;;5056289;28;20027;-82
2023/11/06 00:28:03;;;;;;;0.68;0.68;;;;;;;;;;5073689;28;20471;-81
2023/11/06 00:30:29;;;;;;;0.43;0.43;;;;;;;;;;5071366;28;20031;-82
2023/11/06 00:32:57;;;;;;;0.77;0.65;;;;;;;;;;5061030;28;20070;-78
2023/11/06 00:35:23;;;;;;;0.60;0.60;;;;;;;;;;5062085;28;20095;-78
2023/11/06 00:37:49;;;;;;;0.52;0.52;;;;;;;;;;5052280;28;20031;-78
2023/11/06 00:40:15;;;;;;;0.60;0.60;;;;;;;;;;5053362;28;20066;-77
2023/11/06 00:42:41;;;;;;;0.50;0.50;;;;;;;;;;5069049;28;20128;-80
2023/11/06 00:45:07;;;;;;;0.52;0.52;;;435.30;2355.20;;;;;;5069404;28;20027;-76
2023/11/06 00:47:33;;;;;;;0.50;0.50;;;;;;;;;;5061760;28;20032;-79
2023/11/06 00:49:59;;;;;;;0.50;0.50;;;;;;;;;;5055681;28;20054;-79
2023/11/06 00:52:25;;;;;;;0.70;0.70;;;;;;;;;;5055250;28;20020;-80
2023/11/06 00:54:51;;;;;;;0.60;0.60;;;;;;;;;;5073852;28;20059;-78
2023/11/06 00:57:17;;;;;;;0.60;0.60;;;;;;;;;;5054492;28;20035;-80
2023/11/06 00:59:44;;;;;;;0.55;0.55;;;;;;;;;;5050257;28;20027;-81
2023/11/06 01:02:10;;;;;;;0.65;0.65;;;;;;;;;;5055490;28;20029;-80
2023/11/06 01:04:36;;;;;;;0.60;0.60;;;;;;;;;;5073222;28;20028;-80
2023/11/06 01:07:02;;;;;;;0.50;0.50;;;;;;;;;;5055718;28;20020;-80
2023/11/06 01:09:30;;;;;;;0.60;0.60;;;;;;;;;;5072386;28;20035;-80
2023/11/06 01:11:56;;;;;;;0.68;0.65;;;;;;;;;;5068491;28;20017;-80
2023/11/06 01:14:23;;;;;;;0.52;0.52;;;;;;;;;;5055790;28;20382;-82
2023/11/06 01:16:50;;;;;;;0.60;0.60;;;;;;;;;;5055403;28;20048;-81
2023/11/06 01:19:16;;;;;;;0.60;0.60;;;;;;;;;;5055335;28;20024;-83
2023/11/06 01:21:42;;;;;;;0.50;0.50;;;;;;;;;;5073237;28;20023;-82
2023/11/06 01:24:09;;;;;;;0.60;0.60;;;;;;;;;;5073720;28;20028;-82
2023/11/06 01:26:35;;;;;;;0.60;0.60;;;;;;;;;;5055382;28;20132;-82
2023/11/06 01:29:01;;;;;;;0.60;0.60;;;410.00;2355.20;;;;;;5073507;28;20024;-82
2023/11/06 01:31:28;;;;;;;0.50;0.50;;;409.80;2355.20;;;;;;5055775;28;20458;-82
2023/11/06 01:33:54;;;;;;;0.60;0.60;;;;;;;;;;5055041;28;20025;-80
2023/11/06 01:36:20;;;;;;;0.70;0.70;;;;;;;;;;5055454;28;20032;-79
2023/11/06 01:38:47;;;;;;;0.70;0.63;;;;;;;;;;5056183;28;20023;-83
2023/11/06 01:41:13;;;;;;;0.60;0.60;;;;;;;;;;5055446;28;20064;-82
2023/11/06 01:43:39;;;;;;;0.60;0.60;;;;;;;;;;5057512;28;20169;-82
2023/11/06 01:46:05;;;;;;;0.68;0.68;;;;;;;;;;5077487;28;20023;-83
2023/11/06 01:48:31;;;;;;;0.60;0.60;;;;;;;;;;5076937;28;20028;-82
2023/11/06 01:50:58;;;;;;;0.63;0.63;;;;;;;;;;5077300;28;20106;-83
2023/11/06 01:53:25;;;;;;;0.60;0.60;;;;;;;;;;5059427;28;20091;-83
2023/11/06 01:55:51;;;;;;;0.65;0.65;;;;;;;;;;5059600;28;20027;-82
2023/11/06 01:58:19;;;;;;;0.60;0.60;;;;;;;;;;5059155;28;20031;-81
2023/11/06 02:00:45;;;;;;;0.60;0.60;;;;;;;;;;5058902;28;20428;-82
2023/11/06 02:03:13;;;;;;;0.60;0.60;;;;;;;;;;5077099;28;20020;-84
2023/11/06 02:05:39;;;;;;;0.60;0.60;;;;;;;;;;5059139;28;20025;-82
2023/11/06 02:08:06;;;;;;;0.75;0.75;;;;;;;;;;5076498;28;20108;-81
2023/11/06 02:10:32;;;;;;;0.70;0.70;;;;;;;;;;5076636;28;20444;-82
2023/11/06 02:13:02;;;;;;;0.70;0.65;;;;;;;;;;5059044;28;20067;-81
2023/11/06 02:15:28;;;;;;;0.60;0.60;;;;;;;;;;5058384;28;20023;-82
2023/11/06 02:17:55;;;;;;;0.55;0.55;;;;;;;;;;5076734;28;20074;-81
2023/11/06 02:20:21;;;;;;;0.63;0.60;;;;;;;;;;5058430;28;20024;-83
2023/11/06 02:22:48;;;;;;;0.70;0.70;;;;;;;;;;5058504;28;20036;-83
2023/11/06 02:25:14;;;;;;;0.60;0.60;;;;;;;;;;5058747;28;20020;-83
2023/11/06 02:27:40;;;;;;;0.57;0.57;;;;;;;;;;5058891;28;20516;-82
2023/11/06 02:30:08;;;;;;;0.63;0.60;;;;;;;;;;5058307;28;20025;-81
2023/11/06 02:32:34;;;;;;;0.60;0.60;;;;;;;;;;5059552;28;20027;-82
2023/11/06 02:35:00;;;;;;;0.63;0.63;;;;;;;;;;5060644;28;20103;-81
2023/11/06 02:37:27;;;;;;;0.70;0.60;;;;;;;;;;5061387;28;20024;-83
2023/11/06 02:39:53;;;;;;;0.60;0.60;;;;;;;;;;5058341;28;20021;-84
2023/11/06 02:42:20;;;;;;;0.70;0.70;;;;;;;;;;5058144;28;20028;-81
2023/11/06 02:44:46;;;;;;;0.88;0.70;;;;;;;;;;5058117;28;20036;-83
2023/11/06 02:47:13;;;;;;;0.60;0.60;;;;;;;;;;5076455;28;20078;-82
2023/11/06 02:49:39;;;;;;;0.60;0.60;;;;;;;;;;5076236;28;20025;-83
2023/11/06 02:52:05;;;;;;;0.70;0.70;;;;;;;;;;5076371;28;20052;-81
2023/11/06 02:54:31;;;;;;;0.60;0.60;;;;;;;;;;5058092;28;20051;-82
2023/11/06 02:56:57;;;;;;;0.60;0.60;;;;;;;;;;5058253;28;20020;-82
2023/11/06 02:59:23;;;;;;;0.70;0.70;;;;;;;;;;5058146;28;20494;-81
2023/11/06 03:01:50;;;;;;;0.60;0.60;;;;;;;;;;5076020;28;20051;-82
2023/11/06 03:04:16;;;;;;;0.60;0.60;;;;;;;;;;5058106;28;20420;-84
2023/11/06 03:06:42;;;;;;;0.88;0.70;;;;;;;;;;5058017;28;20032;-86
2023/11/06 03:09:09;;;;;;;0.90;0.80;;;;;;;;;;5076196;28;20052;-85
2023/11/06 03:11:36;;;;;;;0.65;0.65;;;;;;;;;;5057791;28;20051;-84
2023/11/06 03:14:05;;;;;;;1.42;1.10;;;;;;;;;;5057794;28;20113;-85
2023/11/06 03:16:33;;;;;;;0.90;0.90;;;;;;;;;;5057687;28;20028;-85
2023/11/06 03:18:59;;;;;;;0.70;0.70;;;;;;;;;;5075450;28;20032;-85
2023/11/06 03:21:25;;;;;;;0.50;0.50;;;;;;;;;;5057726;28;20032;-85
2023/11/06 03:23:51;;;;;;;0.70;0.70;;;;;;;;;;5057768;28;20413;-84
2023/11/06 03:26:18;;;;;;;0.50;0.50;;;;;;;;;;5057160;28;20028;-84
2023/11/06 03:28:44;;;;;;;0.60;0.60;;;;;;;;;;5075451;28;20024;-84
2023/11/06 03:31:10;;;;;;;0.60;0.60;;;;;;;;;;5057107;28;20078;-86
2023/11/06 03:33:36;;;;;;;0.60;0.60;;;;;;;;;;5057552;28;20448;-84
2023/11/06 03:36:06;;;;;;;0.60;0.60;;;;;;;;;;5057444;28;20028;-84
2023/11/06 03:38:32;;;;;;;0.60;0.60;;;;;;;;;;5056962;28;20025;-84
2023/11/06 03:40:58;;;;;;;0.60;0.60;;;;;;;;;;5076054;28;20012;-81
2023/11/06 03:43:24;;;;;;;0.68;0.68;;;;;;;;;;5092746;28;20113;-84
2023/11/06 03:45:50;;;;;;;0.60;0.60;;;;;;;;;;5076084;28;20024;-84
2023/11/06 03:48:17;;;;;;;0.73;0.70;;;;;;;;;;5057280;28;20024;-85
2023/11/06 03:50:43;;;;;;;0.60;0.60;;;;;;;;;;5057121;28;20074;-86
2023/11/06 03:53:13;;;;;;;0.68;0.60;;;;;;;;;;5074341;28;20052;-85
2023/11/06 03:55:39;;;;;;;1.23;1.05;;;;;;;;;;5075437;28;20458;-85
2023/11/06 03:58:06;;;;;;;0.60;0.60;;;;;;;;;;5057221;28;20389;-86
2023/11/06 04:00:33;;;;;;;0.70;0.70;;;;;;;;;;5057033;28;20020;-87
2023/11/06 04:03:02;;;;;;;0.70;0.70;;;;;;;;;;5057035;28;20039;-85
2023/11/06 04:05:28;;;;;;;0.60;0.60;;;;;;;;;;5074214;28;20017;-86
2023/11/06 04:07:55;;;;;;;0.77;0.73;;;;;;;;;;5056059;28;20033;-83
2023/11/06 04:10:21;;;;;;;0.68;0.65;;;;;;;;;;5057345;28;20115;-85
2023/11/06 04:12:47;;;;;;;0.60;0.60;;;;;;;;;;5056883;28;20027;-85
2023/11/06 04:15:13;;;;;;;0.60;0.60;;;;;;;;;;5056359;28;20024;-84
2023/11/06 04:17:43;;;;;;;0.82;0.70;;;;;;;;;;5056611;28;20032;-83
2023/11/06 04:20:10;;;;;;;0.75;0.70;;;;;;;;;;5056329;28;20027;-84
2023/11/06 04:22:37;;;;;;;0.60;0.60;;;;;;;;;;5056526;28;20021;-83
2023/11/06 04:25:04;;;;;;;0.77;0.70;;;;;;;;;;5056554;28;20512;-84
2023/11/06 04:27:30;;;;;;;0.63;0.63;;;;;;;;;;5056119;28;20531;-83
2023/11/06 04:29:56;;;;;;;0.50;0.50;;;;;;;;;;5074375;28;20028;-83
2023/11/06 04:32:23;;;;;;;0.82;0.70;;;;;;;;;;5056357;28;20029;-85
2023/11/06 04:34:49;;;;;;;0.60;0.60;;;;;;;;;;5056473;28;20429;-87
2023/11/06 04:37:15;;;;;;;0.60;0.60;;;;;;;;;;5074434;28;20089;-86
2023/11/06 04:39:41;;;;;;;0.50;0.50;;;;;;;;;;5056071;28;20064;-86
2023/11/06 04:42:09;;;;;;;0.60;0.60;;;;;;;;;;5055947;28;20020;-85
2023/11/06 04:44:35;;;;;;;0.60;0.60;;;;;;;;;;5056280;28;20025;-86
2023/11/06 04:47:01;;;;;;;0.63;0.60;;;;;;;;;;5056227;28;20025;-85
2023/11/06 04:49:27;;;;;;;0.57;0.57;;;;;;;;;;5055934;28;20060;-86
2023/11/06 04:51:53;;;;;;;0.65;0.65;;;;;;;;;;5074071;28;20021;-84
2023/11/06 04:54:19;;;;;;;0.60;0.60;;;;;;;;;;5052556;28;20059;-83
2023/11/06 04:56:48;;;;;;;0.70;0.60;;;;;;;;;;5052484;28;20488;-83
2023/11/06 04:59:14;;;;;;;0.60;0.60;;;;;;;;;;5052864;28;20032;-83
2023/11/06 05:01:40;;;;;;;0.77;0.70;;;;;;;;;;5053831;28;20029;-85
2023/11/06 05:04:07;;;;;;;0.70;0.70;;;;;;;;;;5052287;28;20032;-84
2023/11/06 05:06:33;;;;;;;1.17;0.70;;;;;;;;;;5053184;28;20090;-83
2023/11/06 05:09:04;;;;;;;0.98;0.80;;;;;;;;;;5053753;28;20079;-82
2023/11/06 05:11:31;;;;;;;0.90;0.70;;;;;;;;;;5052435;28;20112;-83
2023/11/06 05:13:57;;;;;;;0.77;0.68;;;;;;;;;;5053393;28;20032;-83
2023/11/06 05:16:24;;;;;;;0.70;0.60;;;;;;;;;;5052708;28;20017;-83
2023/11/06 05:18:50;;;;;;;0.88;0.70;;;;;;;;;;5054746;28;20079;-83
2023/11/06 05:21:23;;;;;;;0.60;0.60;;;;;;;;;;5056595;28;20037;-84
2023/11/06 05:23:50;;;;;;;0.80;0.70;;;359.10;2329.60;;;;;;5057487;28;20017;-84
2023/11/06 05:26:17;;;;;;;1.10;0.82;;;;;;;;;;5056287;28;20048;-85
2023/11/06 05:28:43;;;;;;;0.73;0.60;;;;;;;;;;5056611;28;20135;-84
2023/11/06 05:31:10;;;;;;;0.90;0.70;;;;;;;;;;5056286;28;20022;-84
2023/11/06 05:33:36;;;;;;;0.95;0.73;;;;;;;;;;5056296;28;20025;-83
2023/11/06 05:36:03;;;;;;;2.38;1.17;;;;;;;;;;5056459;28;20021;-85
2023/11/06 05:38:28;;;;;;;1.08;0.90;;;359.00;1996.80;;;;;;5039491;28;20029;-86
2023/11/06 05:40:55;;;;;;;0.70;0.60;;;;;;;;;;5056227;28;20029;-85
2023/11/06 05:43:21;;;;;;;1.80;0.95;;;;;;;;;;5056135;28;20498;-84
2023/11/06 05:45:47;;;;;;;0.70;0.65;;;;;;;;;;5055757;28;20028;-85
2023/11/06 05:48:13;;;;;;;0.90;0.80;;;;;;;;;;5055852;28;20032;-85
2023/11/06 05:50:40;;;;;;;0.68;0.60;;;;;;;;;;5056061;28;20040;-85
2023/11/06 05:53:06;;;;;;;1.27;0.90;;;;;;;;;;5056250;28;20021;-84
2023/11/06 05:55:32;;;;;;;0.68;0.68;;;;;;;;;;5059090;28;20108;-84
2023/11/06 05:57:58;;;;;;;0.77;0.70;;;;;;;;;;5059301;28;20024;-85
2023/11/06 06:00:25;;;;;;;1.10;0.70;;;;;;;;;;5058974;28;20025;-84
2023/11/06 06:02:51;;;;;;;0.63;0.60;;;;;;;;;;5059453;28;20024;-85
2023/11/06 06:05:17;;;;;;;0.88;0.70;;;;;;;;;;5059411;28;20432;-85
2023/11/06 06:07:44;;;;;;;2.97;0.95;;;;;;;;;;5059227;28;20028;-84
2023/11/06 06:10:13;;;;;;;1.70;0.77;;;;;;;;;;5059465;28;20029;-85
2023/11/06 06:12:39;;;;;;;0.70;0.70;;;;;;;;;;5059738;28;20021;-85
2023/11/06 06:15:06;;;;;;;0.70;0.70;;;;;;;;;;5059377;28;20028;-83
2023/11/06 06:17:34;;;;;;;1.00;0.80;;;;;;;;;;5058957;28;20102;-84
2023/11/06 06:20:03;;;;;;;1.02;0.80;;;;;;;;;;5058638;28;20366;-86
2023/11/06 06:22:29;;;;;;;0.70;0.70;;;;;;;;;;5058868;28;20063;-83
2023/11/06 06:24:55;;;;;;;1.00;0.80;;;;;;;;;;5058892;28;20419;-83
2023/11/06 06:27:21;;;;;;;1.10;0.90;;;;;;;;;;5076061;28;20032;-85
2023/11/06 06:29:52;;;;;;;1.35;1.20;;;;;;;;;;5058854;28;20021;-85
2023/11/06 06:32:18;;;;;;;0.85;0.70;;;;;;;;;;5058955;28;20369;-84
2023/11/06 06:34:44;;;;;;;0.90;0.70;;;;;;;;;;5076099;28;20023;-86
2023/11/06 06:37:11;;;;;;;0.95;0.75;;;;;;;;;;5076817;28;20024;-86
2023/11/06 06:39:37;;;;;;;0.90;0.80;;;;;;;;;;5058508;28;20028;-85
2023/11/06 06:42:03;;;;;;;1.10;0.85;;;;;;;;;;5076336;28;20017;-85
2023/11/06 06:44:29;;;;;;;0.60;0.60;;;;;;;;;;5059176;28;20052;-86
2023/11/06 06:46:58;;;;;;;1.00;0.85;;;;;;;;;;5058073;28;20035;-85
2023/11/06 06:49:26;;;;;;;0.70;0.70;;;;;;;;;;5057951;28;20417;-85
2023/11/06 06:51:52;;;;;;;0.93;0.80;;;;;;;;;;5058027;28;20496;-85
2023/11/06 06:54:18;;;;;;;1.08;0.95;;;;;;;;;;5057754;28;20048;-84
2023/11/06 06:56:49;;;;;;;0.52;0.50;;;;;;;;;;5065728;28;20044;-82
2023/11/06 06:59:15;;;;;;;1.00;0.80;;;;;;;;;;5070877;28;20059;-87
2023/11/06 07:01:42;;;;;;;1.10;1.00;;;;;;;;;;5057850;28;20466;-84
2023/11/06 07:04:09;;;;;;;0.85;0.70;;;;;;;;;;5058355;28;20052;-84
2023/11/06 07:06:35;;;;;;;0.70;0.70;;;;;;;;;;5058008;28;20020;-84
2023/11/06 07:09:02;;;;;;;0.88;0.70;;;;;;;;;;5075659;28;20020;-83
2023/11/06 07:11:30;;;;;;;0.65;0.63;;;;;;;;;;5057838;28;20024;-84
2023/11/06 07:13:56;;;;;;;0.80;0.70;;;;;;;;;;5057753;28;20021;-83
2023/11/06 07:16:22;;;;;;;0.60;0.60;;;;;;;;;;5057452;28;20016;-83
2023/11/06 07:18:49;;;;;;;0.60;0.60;;;;;;;;;;5075618;28;20108;-83
2023/11/06 07:21:17;;;;;;;0.60;0.60;;;;;;;;;;5057668;28;20024;-82
2023/11/06 07:23:44;;;;;;;0.75;0.70;;;;;;;;;;5057381;28;20461;-84
2023/11/06 07:26:11;;;;;;;0.60;0.60;;;;;;;;;;5058139;28;20035;-83
2023/11/06 07:28:37;;;;;;;1.30;1.13;;;;;;;;;;5075374;28;20441;-83
2023/11/06 07:31:03;;;;;;;0.80;0.80;;;;;;;;;;5075225;28;20029;-83
2023/11/06 07:33:29;;;;;;;1.00;1.00;;;;;;;;;;5075310;28;20025;-83
2023/11/06 07:35:56;;;;;;;0.80;0.80;;;;;;;;;;5057333;28;20020;-83
2023/11/06 07:38:22;;;;;;;0.60;0.60;;;;;;;;;;5056841;28;20377;-83
2023/11/06 07:40:48;;;;;;;0.50;0.50;;;;;;;;;;5074353;28;20062;-83
2023/11/06 07:43:14;;;;;;;1.63;0.93;;;;;;;;;;5057513;28;20115;-82
2023/11/06 07:45:40;;;;;;;1.45;1.35;;;;;;;;;;5057555;28;20043;-82
2023/11/06 07:48:07;;;;;;;3.00;0.70;;;;;;;;;;5056976;28;20032;-82
2023/11/06 07:50:33;;;;;;;0.57;0.57;;;;;;;;;;5056764;28;20099;-82
2023/11/06 07:53:00;;;;;;;0.75;0.75;;;;;;;;;;5056942;28;20017;-82
2023/11/06 07:55:26;;;;;;;0.70;0.70;;;;;;;;;;5050290;28;20033;-82
2023/11/06 07:57:52;;;;;;;0.63;0.60;;;;;;;;;;5033201;28;20100;-82
2023/11/06 08:00:18;;;;;;;0.90;0.85;;;;;;;;;;5034851;28;20032;-82
2023/11/06 08:02:44;;;;;;;0.60;0.60;;;;;;;;;;5033472;28;20049;-82
2023/11/06 08:05:11;;;;;;;0.60;0.60;;;;;;;;;;5032959;28;20025;-82
2023/11/06 08:07:38;;;;;;;0.52;0.52;;;;;;;;;;5033489;28;20075;-81
2023/11/06 08:10:07;;;;;;;0.50;0.50;;;;;;;;;;5033336;28;20060;-82
2023/11/06 08:12:33;;;;;;;0.80;0.80;;;;;;;;;;5033332;28;20032;-82
2023/11/06 08:14:59;;;;;;;0.57;0.57;;;;;;;;;;5032991;28;20452;-82
2023/11/06 08:17:26;;;;;;;0.50;0.50;;;;;;;;;;5033882;28;20029;-81
2023/11/06 08:19:52;;;;;;;0.50;0.50;;;;;;;;;;5033564;28;20021;-81
2023/11/06 08:22:21;;;;;;;0.60;0.60;;;;;;;;;;5032864;28;20026;-81
2023/11/06 08:24:48;;;;;;;0.55;0.55;;;;;;;;;;5033670;28;20513;-81
2023/11/06 08:27:14;;;;;;;0.75;0.75;;;;;;;;;;5034335;28;20080;-81
2023/11/06 08:29:42;;;;;;;0.63;0.63;;;;;;;;;;5033840;28;20025;-81
2023/11/06 08:32:12;;;;;;;0.50;0.50;;;;;;;;;;5033251;28;20116;-78
2023/11/06 08:34:42;;;;;;;0.60;0.60;;;460.80;2380.80;;;;;;5032832;28;20026;-79
2023/11/06 08:37:11;;;;;;;0.77;0.77;;;436.10;2355.20;;;;;;5032534;28;20037;-79
2023/11/06 08:39:46;;;;;;;0.60;0.60;;;436.10;2355.20;;;;;;5032742;28;20534;-79
2023/11/06 08:42:14;;;;;;;0.60;0.60;;;;;;;;;;5032553;28;20073;-78
2023/11/06 08:44:40;;;;;;;0.50;0.50;;;;;;;;;;5033774;28;20025;-78
2023/11/06 08:47:10;;;;;;;0.60;0.60;;;;;;;;;;5032503;28;20036;-80
2023/11/06 08:49:36;;;;;;;0.60;0.60;;;;;;;;;;5034136;28;20064;-80
2023/11/06 08:52:03;;;;;;;0.60;0.60;;;;;;;;;;5032205;28;20052;-80
2023/11/06 08:54:30;;;;;;;0.60;0.60;;;;;;;;;;5058126;28;20041;-80
2023/11/06 08:56:57;;;;;;;0.50;0.50;;;461.40;2380.80;;;;;;5073459;28;20023;-80
2023/11/06 08:59:23;;;;;;;0.60;0.60;;;461.40;2380.80;;;;;;5056541;28;20025;-79
2023/11/06 09:01:51;;;;;;;0.50;0.50;;;461.40;2380.80;;;;;;5073491;28;20036;-80
2023/11/06 09:04:18;;;;;;;0.50;0.50;;;461.40;2380.80;;;;;;5055365;28;20025;-79
2023/11/06 09:06:44;;;;;;;0.60;0.60;;;461.40;2380.80;;;;;;5073894;28;20016;-79
2023/11/06 09:09:11;;;;;;;0.65;0.65;;;461.40;2380.80;;;;;;5055545;28;20479;-80
2023/11/06 09:11:41;;;;;;;0.60;0.60;;;461.40;2380.80;;;;;;5055300;28;20036;-79
2023/11/06 09:14:08;;;;;;;0.50;0.50;;;461.40;2380.80;;;;;;5055640;28;20466;-80
2023/11/06 09:16:38;;;;;;;0.50;0.50;;;461.40;2380.80;;;;;;5073554;28;20117;-80
2023/11/06 09:19:05;;;;;;;0.70;0.70;;;461.40;2380.80;;;;;;5055344;28;20031;-80
2023/11/06 09:21:31;;;;;;;0.45;0.45;;;486.40;2380.80;;;;;;5056066;28;20454;-81
2023/11/06 09:23:58;;;;;;;0.50;0.50;;;486.60;2380.80;;;;;;5055518;28;20025;-80
2023/11/06 09:26:24;;;;;;;0.50;0.50;;;;;;;;;;5072936;28;20028;-81
2023/11/06 09:28:50;;;;;;;0.50;0.50;;;487.00;2380.80;;;;;;5073662;28;20119;-81
2023/11/06 09:31:20;;;;;;;0.50;0.50;;;486.90;2380.80;;;;;;5055463;28;20472;-79
2023/11/06 09:33:53;;;;;;;0.60;0.60;;;486.80;2380.80;;;;;;5055119;28;20509;-80
2023/11/06 09:36:21;;;;;;;0.50;0.50;;;486.90;2380.80;;;;;;5055544;28;20466;-80
2023/11/06 09:38:48;;;;;;;0.77;0.77;;;487.00;2380.80;;;;;;5072812;28;20025;-79
2023/11/06 09:41:14;;;;;;;0.60;0.60;;;487.10;2380.80;;;;;;5055778;28;20079;-80
2023/11/06 09:43:41;;;;;;;0.40;0.40;;;;;;;;;;5073555;28;20037;-80
2023/11/06 09:46:10;;;;;;;0.40;0.40;;;;;;;;;;5054937;28;20044;-80
2023/11/06 09:48:37;;;;;;;0.70;0.70;;;;;;;;;;5055155;28;20031;-81
2023/11/06 09:51:13;;;;;;;0.50;0.50;;;;;;;;;;5046363;28;20033;-79
2023/11/06 09:53:40;;;;;;;0.50;0.50;;;;;;;;;;5034360;28;20048;-78
2023/11/06 09:56:08;;;;;;;0.43;0.43;;;;;;;;;;5053032;28;20458;-76
2023/11/06 09:58:35;;;;;;;0.40;0.40;;;;;;;;;;5050891;28;20025;-81
2023/11/06 10:01:01;;;;;;;0.50;0.50;;;;;;;;;;5054721;28;20063;-79
2023/11/06 10:03:27;;;;;;;0.50;0.50;;;512.50;2201.60;;;;;;5055118;28;20016;-82
2023/11/06 10:05:53;;;;;;;0.57;0.57;;;512.70;2227.20;;;;;;5058481;28;20024;-80
2023/11/06 10:08:30;;;;;;;0.40;0.40;;;512.60;2252.80;;;;;;5058239;28;20090;-80
2023/11/06 10:11:01;;;;;;;0.40;0.40;;;512.40;2150.40;;;;;;5058832;28;20537;-80
2023/11/06 10:13:27;;;;;;;0.50;0.50;;;512.80;2150.40;;;;;;5058556;28;20024;-79
2023/11/06 10:15:54;;;;;;;1.08;0.98;;;512.90;2150.40;;;;;;5076141;28;20067;-80
2023/11/06 10:18:21;;;;;;;0.40;0.40;;;512.90;2176.00;;;;;;5058596;28;20036;-79
2023/11/06 10:20:51;;;;;;;0.47;0.47;;;512.80;2150.40;;;;;;5075991;28;20025;-81
2023/11/06 10:23:43;;;;;;;0.60;0.60;;;;;;;;;;5060146;28;20032;-79
2023/11/06 10:26:16;;;;;;;0.40;0.40;;;;;;;;;;5054686;28;20045;-80
2023/11/06 10:28:44;;;;;;;0.40;0.40;;;;;;;;;;5038086;28;20029;-80
2023/11/06 10:31:10;;;;;;;0.40;0.40;;;;;;;;;;5056595;28;20037;-82
2023/11/06 10:33:37;;;;;;;0.50;0.50;;;;;;;;;;5056414;28;20025;-80
2023/11/06 10:36:15;;;;;;;0.40;0.40;;;;;;;;;;5038916;28;20031;-79
2023/11/06 10:38:43;;;;;;;0.50;0.50;;;;;;;;;;5044093;28;20032;-79
2023/11/06 10:41:24;;;;;;;0.50;0.50;;;;;;;;;;5056413;28;20025;-79
2023/11/06 10:43:51;;;;;;;0.80;0.65;;;;;;;;;;5057627;28;20021;-82
2023/11/06 10:46:18;;;;;;;0.50;0.50;;;;;;;;;;5054618;28;20454;-82
2023/11/06 10:49:08;;;;;;;0.50;0.50;;;;;;;;;;5057719;28;20035;-82
2023/11/06 10:51:34;;;;;;;0.50;0.50;;;;;;;;;;5032078;28;20397;-83
2023/11/06 10:54:01;;;;;;;0.50;0.50;;;;;;;;;;5057454;28;20056;-82
2023/11/06 10:56:30;;;;;;;0.50;0.50;;;;;;;;;;5054192;28;20108;-82
2023/11/06 10:58:58;;;;;;;0.50;0.50;;;;;;;;;;5057632;28;20386;-82
2023/11/06 11:01:26;;;;;;;0.70;0.70;;;;;;;;;;5054520;28;20095;-83
2023/11/06 11:03:52;;;;;;;0.50;0.50;;;;;;;;;;5063788;28;20013;-83
2023/11/06 11:06:18;;;;;;;0.40;0.40;;;;;;;;;;5057425;28;20075;-83
2023/11/06 11:08:46;;;;;;;0.40;0.40;;;;;;;;;;5057552;28;20064;-82
2023/11/06 11:11:12;;;;;;;0.40;0.40;;;;;;;;;;5057027;28;20017;-81
2023/11/06 11:13:38;;;;;;;0.40;0.40;;;;;;;;;;5057389;28;20024;-81
2023/11/06 11:16:37;;;;;;;0.40;0.40;;;;;;;;;;5052450;28;20524;-83
2023/11/06 11:19:22;;;;;;;0.40;0.40;;;;;;;;;;4972297;28;20092;-82
2023/11/06 11:22:04;;;;;;;0.50;0.50;;;;;;;;;;4977279;28;20431;-82
2023/11/06 11:24:42;;;;;;;0.40;0.40;;;;;;;;;;4979924;28;20089;-82
2023/11/06 11:27:08;;;;;;;0.57;0.57;;;;;;;;;;4974844;28;20026;-82
2023/11/06 11:29:53;;;;;;;0.35;0.35;;;;;;;;;;4977247;28;20034;-81
2023/11/06 11:32:49;;;;;;;0.40;0.40;;;;;;;;;;4973634;28;20086;-80
2023/11/06 11:35:19;;;;;;;0.40;0.40;;;;;;;;;;4982546;28;20033;-83
2023/11/06 11:37:56;;;;;;;0.50;0.50;;;;;;;;;;4976834;28;20022;-81
2023/11/06 11:40:22;;;;;;;0.38;0.38;;;;;;;;;;4973786;28;20341;-81
2023/11/06 11:42:48;;;;;;;0.40;0.40;;;;;;;;;;4976841;28;20039;-79
2023/11/06 11:45:31;;;;;;;0.40;0.40;;;;;;;;;;4976203;28;20050;-80
2023/11/06 11:47:57;;;;;;;0.32;0.32;;;;;;;;;;4983837;28;20034;-80
2023/11/06 11:50:26;;;;;;;0.40;0.40;;;;;;;;;;4986043;28;20026;-81
2023/11/06 11:52:52;;;;;;;0.38;0.38;;;;;;;;;;4973101;28;20023;-81
2023/11/06 11:55:37;;;;;;;0.40;0.40;;;;;;;;;;5038113;28;20036;-79
2023/11/06 11:58:07;;;;;;;0.30;0.30;;;;;;;;;;5056432;28;20031;-79
2023/11/06 12:00:34;;;;;;;0.30;0.30;;;;;;;;;;5056260;28;20485;-80
2023/11/06 12:03:10;;;;;;;0.30;0.30;;;;;;;;;;5057070;28;20508;-82
2023/11/06 12:05:37;;;;;;;0.30;0.30;;;;;;;;;;5069033;28;20131;-79
2023/11/06 12:08:23;;;;;;;0.30;0.30;;;;;;;;;;5049999;28;20044;-82
2023/11/06 12:10:49;;;;;;;0.30;0.30;;;;;;;;;;5053726;28;20033;-80
2023/11/06 12:13:16;;;;;;;0.30;0.30;;;;;;;;;;5065986;28;20462;-82
2023/11/06 12:15:43;;;;;;;0.38;0.38;;;;;;;;;;5056524;28;20066;-80
2023/11/06 12:18:11;;;;;;;0.30;0.30;;;;;;;;;;5052501;28;20479;-80
2023/11/06 12:20:37;;;;;;;0.30;0.30;;;;;;;;;;5039837;28;20036;-81
2023/11/06 12:23:03;;;;;;;0.30;0.30;;;;;;;;;;5056320;28;20052;-83
2023/11/06 12:25:33;;;;;;;0.30;0.30;;;;;;;;;;5045675;28;20067;-80
2023/11/06 12:28:05;;;;;;;0.40;0.40;;;;;;;;;;5075496;28;20052;-83
2023/11/06 12:30:32;;;;;;;0.30;0.30;;;;;;;;;;5072140;28;20023;-80
2023/11/06 12:33:09;;;;;;;0.30;0.30;;;;;;;;;;5074230;28;20029;-80
2023/11/06 12:35:37;;;;;;;0.50;0.50;;;;;;;;;;5056266;28;20052;-81
2023/11/06 12:38:04;;;;;;;0.30;0.30;;;;;;;;;;5056233;28;20466;-81
2023/11/06 12:40:30;;;;;;;0.40;0.40;;;;;;;;;;5056452;28;20420;-81
2023/11/06 12:42:57;;;;;;;0.30;0.30;;;;;;;;;;5055867;28;20478;-79
2023/11/06 12:45:26;;;;;;;0.40;0.40;;;;;;;;;;5056118;28;20024;-81
2023/11/06 12:47:52;;;;;;;0.40;0.40;;;;;;;;;;5055851;28;20029;-82
2023/11/06 12:50:18;;;;;;;0.30;0.30;;;;;;;;;;5074005;28;20027;-81
2023/11/06 12:52:45;;;;;;;0.20;0.20;;;;;;;;;;5056595;28;20016;-81
2023/11/06 12:55:15;;;;;;;0.30;0.30;;;;;;;;;;5055732;28;20478;-80
2023/11/06 12:57:41;;;;;;;0.30;0.30;;;;;;;;;;5074142;28;20115;-83
2023/11/06 13:00:20;;;;;;;0.30;0.30;;;;;;;;;;5055810;28;20035;-82
2023/11/06 13:02:46;;;;;;;0.30;0.30;;;;;;;;;;5051973;28;20054;-82
2023/11/06 13:05:12;;;;;;;0.35;0.35;;;;;;;;;;5036054;28;20017;-81
2023/11/06 13:07:44;;;;;;;0.30;0.30;;;;;;;;;;5053598;28;20025;-83
2023/11/06 13:10:13;;;;;;;0.43;0.43;;;;;;;;;;5035744;28;20036;-81
2023/11/06 13:12:39;;;;;;;0.30;0.30;;;;;;;;;;5035812;28;20028;-81
2023/11/06 13:15:10;;;;;;;0.30;0.30;;;;;;;;;;5035802;28;20071;-81
2023/11/06 13:17:39;;;;;;;0.30;0.30;;;;;;;;;;5035585;28;20494;-81
2023/11/06 13:20:24;;;;;;;0.30;0.30;;;;;;;;;;5053549;28;20082;-81
2023/11/06 13:23:01;;;;;;;0.30;0.30;;;;;;;;;;5035488;28;20025;-80
2023/11/06 13:25:28;;;;;;;0.30;0.30;;;;;;;;;;5036015;28;20382;-80
2023/11/06 13:27:56;;;;;;;0.50;0.50;;;;;;;;;;5035530;28;20029;-80
2023/11/06 13:30:23;;;;;;;0.38;0.38;;;;;;;;;;5035114;28;20032;-79
2023/11/06 13:32:50;;;;;;;0.30;0.30;;;;;;;;;;5052210;28;20025;-78
2023/11/06 13:35:17;;;;;;;0.30;0.30;;;;;;;;;;5053591;28;20045;-81
2023/11/06 13:37:45;;;;;;;0.30;0.30;;;;;;;;;;5057966;28;20024;-80
2023/11/06 13:40:29;;;;;;;0.30;0.30;;;;;;;;;;5057938;28;20166;-81
2023/11/06 13:42:55;;;;;;;0.30;0.30;;;;;;;;;;5076315;28;20024;-80
2023/11/06 13:45:22;;;;;;;0.30;0.30;;;;;;;;;;5053913;28;20481;-79
2023/11/06 13:47:54;;;;;;;0.32;0.32;;;;;;;;;;5076836;28;20035;-79
2023/11/06 13:50:46;;;;;;;0.35;0.35;;;;;;;;;;5077089;28;20027;-80
2023/11/06 13:53:09;;;;;;;0.30;0.30;;;;;;;;;;5076419;28;20451;-79
2023/11/06 13:55:39;;;;;;;0.57;0.52;;;;;;;;;;5057276;28;20028;-79
2023/11/06 13:58:13;;;;;;;0.30;0.30;;;;;;;;;;5058684;28;20028;-79
2023/11/06 14:00:49;;;;;;;0.30;0.30;;;;;;;;;;5059034;28;20024;-81
2023/11/06 14:03:19;;;;;;;0.40;0.40;;;;;;;;;;5059141;28;20017;-82
2023/11/06 14:05:49;;;;;;;0.50;0.50;;;;;;;;;;5076708;28;20099;-82
2023/11/06 14:08:18;;;;;;;0.40;0.40;;;;;;;;;;5059070;28;20388;-80
2023/11/06 14:10:45;;;;;;;7.68;0.50;;;;;;;;;;5077558;28;20016;-80
2023/11/06 14:13:18;;;;;;;0.52;0.52;;;;;;;;;;5074785;28;20436;-80
2023/11/06 14:15:50;;;;;;;;;;;;;;;;;;5067508;28;20040;-79
2023/11/06 14:18:16;;;;;;;0.70;0.70;;;;;;;;;;5062745;28;20042;-83
2023/11/06 14:20:42;;;;;;;0.52;0.52;;;;;;;;;;5058272;28;20284;-80
2023/11/06 14:23:08;;;;;;;0.40;0.40;;;;;;;;;;5055272;28;20021;-80
2023/11/06 14:25:34;;;;;;;0.50;0.50;;;;;;;;;;5057975;28;20017;-81
2023/11/06 14:28:01;;;;;;;0.40;0.40;;;;;;;;;;5058099;28;20375;-80
2023/11/06 14:30:28;;;;;;;0.40;0.40;;;;;;;;;;5054080;28;20017;-80